Time;durP1;ratioP1;P1;durP2;ratioP2;P2;SDS_P1;SDS_P2;PMS_P1;PMS_P2;Temp;Humidity;BMP_temperature;BMP_pressure;BME280_temperature;BME280_humidity;BME280_pressure;Samples;Min_cycle;Max_cycle;Signal;HPM_P1;HPM_P2
2023/05/17 00:00:50;;;;;;;3.50;1.90;;;6.00;97.20;;;;;;5055499;28;20205;-72
2023/05/17 00:03:16;;;;;;;5.43;2.25;;;6.00;97.20;;;;;;5056273;28;20178;-72
2023/05/17 00:05:42;;;;;;;5.72;2.10;;;5.90;97.50;;;;;;5055490;28;20263;-72
2023/05/17 00:08:07;;;;;;;4.47;2.20;;;5.90;97.50;;;;;;5056362;28;20232;-72
2023/05/17 00:10:33;;;;;;;4.20;1.85;;;5.80;97.60;;;;;;5055179;28;20729;-72
2023/05/17 00:12:59;;;;;;;5.95;1.80;;;5.90;97.80;;;;;;5056082;28;20178;-73
2023/05/17 00:15:24;;;;;;;6.35;1.90;;;5.90;97.80;;;;;;5054932;28;20577;-72
2023/05/17 00:17:50;;;;;;;4.57;2.22;;;5.80;98.00;;;;;;5056580;28;20178;-71
2023/05/17 00:20:15;;;;;;;4.82;2.20;;;5.80;98.10;;;;;;5055675;28;20170;-71
2023/05/17 00:22:42;;;;;;;4.97;2.15;;;5.80;98.20;;;;;;5054747;28;20224;-71
2023/05/17 00:25:07;;;;;;;5.32;1.70;;;5.80;98.20;;;;;;5056097;28;20174;-71
2023/05/17 00:27:33;;;;;;;5.20;1.92;;;5.80;98.20;;;;;;5056510;28;20202;-71
2023/05/17 00:29:59;;;;;;;6.75;2.28;;;5.80;98.10;;;;;;5054775;28;20269;-71
2023/05/17 00:32:24;;;;;;;4.28;2.35;;;5.80;98.10;;;;;;5055599;28;20296;-71
2023/05/17 00:34:50;;;;;;;3.63;1.90;;;5.70;98.20;;;;;;5055389;28;20177;-71
2023/05/17 00:37:15;;;;;;;3.95;1.77;;;5.70;98.20;;;;;;5054058;28;20194;-71
2023/05/17 00:39:41;;;;;;;5.32;1.73;;;5.80;98.10;;;;;;5054199;28;20579;-72
2023/05/17 00:42:06;;;;;;;2.97;1.63;;;5.70;98.20;;;;;;5053961;28;20675;-73
2023/05/17 00:44:32;;;;;;;3.97;1.95;;;5.70;98.20;;;;;;5054326;28;20236;-72
2023/05/17 00:46:58;;;;;;;4.25;1.77;;;5.50;98.10;;;;;;5055265;28;20213;-72
2023/05/17 00:49:27;;;;;;;4.38;2.17;;;5.40;98.50;;;;;;5054267;28;20217;-72
2023/05/17 00:51:53;;;;;;;3.58;1.90;;;5.40;98.70;;;;;;5055178;28;20202;-72
2023/05/17 00:54:19;;;;;;;6.43;1.95;;;5.40;98.80;;;;;;5054096;28;20178;-72
2023/05/17 00:56:45;;;;;;;3.47;1.98;;;5.40;98.90;;;;;;5053852;28;20202;-72
2023/05/17 00:59:12;;;;;;;2.83;1.73;;;5.40;99.20;;;;;;5054105;28;20182;-72
2023/05/17 03:19:01;;;;;;;5.07;2.40;;;4.40;99.90;;;;;;4899107;29;20183;-71
2023/05/17 04:53:14;;;;;;;10.27;4.13;;;7.20;99.90;;;;;;4752486;30;20312;-72
2023/05/17 04:56:15;;;;;;;12.15;3.90;;;7.20;99.90;;;;;;4712881;30;20206;-71
2023/05/17 04:59:30;;;;;;;11.75;4.30;;;7.20;99.90;;;;;;4753051;30;20203;-71
2023/05/17 05:06:39;;;;;;;;;;;;;;;;;;;;;
2023/05/17 05:13:12;;;;;;;15.88;4.35;;;8.40;99.90;;;;;;4841058;29;20224;-71
2023/05/17 05:16:21;;;;;;;;;;;;;;;;;;;;;
2023/05/17 05:26:36;;;;;;;13.40;9.43;;;8.60;99.90;;;;;;4751147;30;20762;-72
2023/05/17 05:32:23;;;;;;;8.55;4.57;;;8.80;99.90;;;;;;4892463;28;20224;-72
2023/05/17 05:35:48;;;;;;;12.13;4.70;;;8.90;99.90;;;;;;4961268;28;20675;-71
2023/05/17 05:41:51;;;;;;;15.85;5.28;;;9.00;99.90;;;;;;4944566;28;20200;-71
2023/05/17 05:45:10;;;;;;;14.40;4.65;;;9.20;99.90;;;;;;4901909;29;20293;-71
2023/05/17 05:48:40;;;;;;;10.30;4.68;;;9.50;99.90;;;;;;4953470;28;20205;-71
2023/05/17 05:51:55;;;;;;;12.60;4.63;;;9.70;99.90;;;;;;4972258;28;20711;-71
2023/05/17 05:54:40;;;;;;;10.27;4.97;;;10.00;99.90;;;;;;4968141;28;20302;-71
2023/05/17 05:57:34;;;;;;;15.30;4.45;;;10.20;99.90;;;;;;4959122;28;20204;-71
2023/05/17 06:00:39;;;;;;;13.50;4.65;;;10.20;99.50;;;;;;4952679;29;20192;-71
2023/05/17 06:03:56;;;;;;;12.18;4.90;;;10.40;99.90;;;;;;4932407;29;20294;-72
2023/05/17 06:17:20;;;;;;;8.93;4.63;;;10.60;97.50;;;;;;4877298;29;20209;-71
2023/05/17 06:20:15;;;;;;;9.73;4.47;;;10.30;97.20;;;;;;4916954;29;20186;-71
2023/05/17 06:23:15;;;;;;;11.80;4.90;;;10.40;97.40;;;;;;4916624;29;20233;-71
2023/05/17 06:26:46;;;;;;;;;;;;;;;;;;;;;
2023/05/17 06:29:34;;;;;;;12.70;4.80;;;10.60;97.50;;;;;;4949923;28;20240;-71
2023/05/17 06:32:53;;;;;;;10.95;5.00;;;10.70;97.00;;;;;;4948012;29;20364;-71
2023/05/17 06:35:48;;;;;;;13.15;4.57;;;11.00;96.90;;;;;;4948242;29;20197;-72
2023/05/17 06:38:45;;;;;;;8.98;4.90;;;11.10;96.20;;;;;;4953038;29;20197;-72
2023/05/17 06:55:54;;;;;;;23.27;4.80;;;11.50;95.10;;;;;;4898312;29;20273;-72
2023/05/17 07:01:47;;;;;;;11.77;4.68;;;11.90;94.40;;;;;;4871089;28;20669;-71
2023/05/17 07:04:12;;;;;;;7.75;4.55;;;11.90;94.20;;;;;;4976656;28;20188;-71
2023/05/17 07:06:38;;;;;;;14.45;5.45;;;11.90;94.10;;;;;;4976102;28;20209;-71
2023/05/17 07:09:03;;;;;;;10.65;5.10;;;11.80;94.00;;;;;;4976142;28;20213;-71
2023/05/17 07:11:29;;;;;;;7.90;5.00;;;11.60;94.30;;;;;;4976851;28;20232;-71
2023/05/17 07:13:54;;;;;;;11.05;5.38;;;11.50;94.50;;;;;;4976336;28;20177;-70
2023/05/17 07:16:20;;;;;;;11.88;5.30;;;11.30;94.40;;;;;;4976777;28;20207;-71
2023/05/17 07:18:45;;;;;;;10.27;4.72;;;11.20;94.50;;;;;;4976017;28;20554;-71
2023/05/17 07:21:11;;;;;;;10.40;4.78;;;11.00;94.90;;;;;;4975916;28;20204;-71
2023/05/17 07:23:36;;;;;;;10.70;4.78;;;10.80;95.30;;;;;;4976147;28;20177;-71
2023/05/17 07:26:02;;;;;;;8.65;5.22;;;10.90;95.70;;;;;;4976029;28;20212;-71
2023/05/17 07:28:28;;;;;;;10.48;5.40;;;11.10;95.80;;;;;;4976098;28;20600;-71
2023/05/17 07:30:54;;;;;;;11.13;4.90;;;11.40;95.00;;;;;;4975716;28;20188;-71
2023/05/17 07:33:19;;;;;;;7.88;4.47;;;11.70;94.40;;;;;;4975689;28;20207;-71
2023/05/17 07:35:45;;;;;;;13.48;4.68;;;12.00;93.70;;;;;;4975887;28;20628;-71
2023/05/17 07:38:10;;;;;;;8.57;4.78;;;12.10;93.00;;;;;;4975663;28;20205;-71
2023/05/17 07:40:36;;;;;;;11.85;4.38;;;12.20;92.40;;;;;;4975854;28;20185;-71
2023/05/17 07:43:01;;;;;;;9.18;4.15;;;12.50;92.90;;;;;;4975562;28;20185;-71
2023/05/17 07:45:27;;;;;;;16.27;4.63;;;12.70;91.50;;;;;;4976498;28;20229;-71
2023/05/17 07:47:53;;;;;;;9.70;4.07;;;13.00;91.40;;;;;;4975419;28;20215;-71
2023/05/17 07:50:18;;;;;;;7.38;4.18;;;12.90;90.80;;;;;;4976578;28;20173;-71
2023/05/17 07:52:44;;;;;;;10.00;4.30;;;12.70;90.40;;;;;;4975504;28;20192;-71
2023/05/17 07:55:09;;;;;;;8.93;4.05;;;12.60;91.00;;;;;;4964660;28;20704;-71
2023/05/17 07:57:35;;;;;;;10.10;4.07;;;12.50;90.90;;;;;;4965174;28;20197;-71
2023/05/17 08:00:01;;;;;;;9.70;3.97;;;12.50;90.60;;;;;;4966227;28;20268;-71
2023/05/17 08:02:27;;;;;;;5.95;3.38;;;12.40;90.00;;;;;;4964726;28;20575;-71
2023/05/17 08:04:52;;;;;;;8.63;4.07;;;12.30;90.10;;;;;;4966411;28;20183;-71
2023/05/17 08:07:18;;;;;;;6.97;3.92;;;12.40;90.80;;;;;;4968476;28;20209;-71
2023/05/17 08:09:44;;;;;;;9.00;3.80;;;12.40;90.20;;;;;;4974990;28;20228;-71
2023/05/17 08:12:10;;;;;;;7.28;3.78;;;12.40;89.80;;;;;;4975726;28;20204;-71
2023/05/17 08:14:35;;;;;;;8.30;3.78;;;12.50;90.10;;;;;;4975158;28;20251;-71
2023/05/17 08:17:01;;;;;;;8.13;3.42;;;12.60;90.00;;;;;;4974903;28;20193;-71
2023/05/17 08:19:27;;;;;;;9.07;3.80;;;12.50;90.00;;;;;;4974880;28;20184;-71
2023/05/17 08:21:52;;;;;;;7.45;3.60;;;12.30;90.20;;;;;;4975094;28;20188;-71
2023/05/17 08:24:18;;;;;;;13.73;4.38;;;12.20;90.20;;;;;;4975902;28;20181;-71
2023/05/17 08:26:44;;;;;;;11.93;4.13;;;12.10;90.10;;;;;;4974638;28;20264;-71
2023/05/17 08:29:09;;;;;;;9.52;3.80;;;12.10;90.40;;;;;;4974590;28;20184;-71
2023/05/17 08:31:35;;;;;;;8.43;3.88;;;12.10;90.30;;;;;;4974405;28;20262;-71
2023/05/17 08:34:00;;;;;;;9.73;3.70;;;11.90;90.10;;;;;;4975779;28;20196;-71
2023/05/17 08:36:27;;;;;;;8.98;3.63;;;11.90;90.00;;;;;;4974937;28;20205;-71
2023/05/17 08:38:52;;;;;;;8.05;3.33;;;11.60;90.00;;;;;;4974474;28;20177;-71
2023/05/17 08:41:19;;;;;;;8.77;3.33;;;11.60;90.20;;;;;;4974909;28;20181;-71
2023/05/17 08:43:46;;;;;;;8.73;4.00;;;11.50;90.20;;;;;;4975669;28;20650;-71
2023/05/17 08:46:12;;;;;;;7.05;3.58;;;11.60;90.60;;;;;;4974224;28;20200;-71
2023/05/17 08:48:40;;;;;;;6.47;3.90;;;11.70;90.90;;;;;;4974762;28;20192;-71
2023/05/17 08:51:07;;;;;;;7.55;3.55;;;11.90;90.70;;;;;;4972817;28;20204;-71
2023/05/17 08:53:34;;;;;;;8.98;3.40;;;12.10;90.00;;;;;;4960334;28;20181;-71
2023/05/17 08:56:03;;;;;;;7.22;3.65;;;12.10;88.90;;;;;;4956639;28;20217;-71
2023/05/17 08:58:36;;;;;;;8.00;3.42;;;12.20;88.10;;;;;;4955166;29;20229;-71
2023/05/17 09:01:03;;;;;;;8.15;3.70;;;12.10;87.70;;;;;;4954917;29;20645;-71
2023/05/17 09:03:29;;;;;;;9.95;3.65;;;12.30;87.10;;;;;;4955896;29;20245;-71
2023/05/17 09:05:55;;;;;;;7.32;3.53;;;12.40;85.20;;;;;;4955832;28;20200;-71
2023/05/17 09:08:21;;;;;;;6.35;3.10;;;12.20;85.40;;;;;;4955307;28;20180;-71
2023/05/17 09:10:48;;;;;;;6.93;3.35;;;12.20;84.90;;;;;;4954580;29;20231;-71
2023/05/17 09:13:13;;;;;;;8.85;3.58;;;12.50;85.90;;;;;;4955476;29;20174;-71
2023/05/17 09:15:43;;;;;;;8.45;3.88;;;12.60;84.60;;;;;;4955761;29;20166;-71
2023/05/17 09:18:13;;;;;;;9.55;3.30;;;12.70;84.10;;;;;;4954490;29;20177;-71
2023/05/17 09:20:40;;;;;;;7.78;3.58;;;12.80;83.20;;;;;;4955296;29;20214;-71
2023/05/17 09:23:08;;;;;;;6.35;3.42;;;12.80;83.70;;;;;;4954530;29;20181;-71
2023/05/17 09:25:34;;;;;;;6.93;3.78;;;13.10;84.20;;;;;;4954570;29;20257;-71
2023/05/17 09:28:02;;;;;;;5.32;3.42;;;13.70;83.60;;;;;;4955621;28;20181;-71
2023/05/17 09:30:32;;;;;;;8.10;3.85;;;14.00;79.60;;;;;;4955796;28;20181;-71
2023/05/17 09:33:12;;;;;;;7.93;3.92;;;14.40;78.70;;;;;;4955469;28;20664;-71
2023/05/17 09:35:38;;;;;;;7.03;3.58;;;14.60;76.50;;;;;;4955304;29;20181;-71
2023/05/17 09:38:11;;;;;;;6.28;3.28;;;14.90;75.60;;;;;;4955482;29;20185;-71
2023/05/17 09:40:42;;;;;;;6.57;3.53;;;15.10;74.00;;;;;;4955501;28;20166;-71
2023/05/17 09:43:10;;;;;;;8.63;3.55;;;15.30;72.30;;;;;;4954560;29;20223;-71
2023/05/17 09:45:36;;;;;;;7.45;3.40;;;15.70;71.00;;;;;;4954647;29;20272;-71
2023/05/17 09:48:12;;;;;;;6.70;3.20;;;15.60;69.20;;;;;;4955353;28;20558;-71
2023/05/17 09:50:43;;;;;;;8.20;3.67;;;15.40;70.70;;;;;;4955598;28;20197;-71
2023/05/17 09:53:21;;;;;;;4.70;3.22;;;15.50;71.20;;;;;;4954295;29;20177;-71
2023/05/17 09:55:47;;;;;;;6.43;3.42;;;15.50;71.00;;;;;;4954414;29;20419;-71
2023/05/17 09:58:13;;;;;;;6.15;3.53;;;15.00;72.40;;;;;;4954447;29;20185;-71
2023/05/17 10:00:41;;;;;;;5.75;3.20;;;14.80;73.70;;;;;;4954425;29;20213;-71
2023/05/17 10:03:10;;;;;;;6.85;3.60;;;14.60;75.10;;;;;;4954053;29;20178;-71
2023/05/17 10:05:36;;;;;;;7.13;3.38;;;14.30;74.50;;;;;;4955137;28;20228;-71
2023/05/17 10:08:04;;;;;;;7.10;3.53;;;14.20;75.70;;;;;;4954226;29;20245;-71
2023/05/17 10:10:31;;;;;;;6.85;3.40;;;14.40;75.50;;;;;;4954189;29;20241;-71
2023/05/17 10:12:59;;;;;;;5.75;3.42;;;14.90;74.10;;;;;;4954208;29;20296;-71
2023/05/17 10:15:25;;;;;;;7.13;3.55;;;14.90;72.70;;;;;;4955022;28;20174;-71
2023/05/17 10:17:52;;;;;;;6.95;3.50;;;15.10;73.40;;;;;;4954681;28;20177;-71
2023/05/17 10:20:19;;;;;;;7.70;3.28;;;15.20;70.90;;;;;;4958992;28;20193;-71
2023/05/17 10:22:46;;;;;;;9.75;4.05;;;15.00;72.00;;;;;;4957668;29;20268;-71
2023/05/17 10:25:13;;;;;;;7.20;3.58;;;14.80;72.50;;;;;;4959100;28;20189;-71
2023/05/17 10:27:39;;;;;;;4.95;3.33;;;14.50;73.40;;;;;;4957815;29;20273;-71
2023/05/17 10:30:05;;;;;;;6.28;3.65;;;14.50;74.80;;;;;;4957924;29;20272;-71
2023/05/17 10:32:32;;;;;;;10.32;3.45;;;14.50;73.60;;;;;;4957416;29;20236;-71
2023/05/17 10:34:59;;;;;;;9.55;3.38;;;14.40;73.80;;;;;;4958093;29;20193;-71
2023/05/17 10:37:28;;;;;;;6.43;3.42;;;14.50;75.20;;;;;;4958532;28;20295;-71
2023/05/17 10:39:55;;;;;;;8.02;3.58;;;14.70;76.40;;;;;;4958636;28;20174;-71
2023/05/17 10:42:21;;;;;;;10.52;3.70;;;14.90;72.30;;;;;;4957315;29;20582;-71
2023/05/17 10:44:47;;;;;;;12.00;3.90;;;15.30;72.90;;;;;;4959916;28;20187;-71
2023/05/17 10:47:14;;;;;;;6.53;3.38;;;15.70;72.20;;;;;;4957498;29;20206;-71
2023/05/17 10:49:40;;;;;;;9.23;3.83;;;15.90;69.40;;;;;;4957165;29;20277;-71
2023/05/17 10:52:15;;;;;;;5.57;3.13;;;16.00;68.70;;;;;;4957985;29;20260;-71
2023/05/17 10:54:43;;;;;;;7.28;3.30;;;15.80;69.70;;;;;;4957245;29;20193;-71
2023/05/17 10:57:31;;;;;;;10.45;4.10;;;15.50;69.70;;;;;;4958422;28;20570;-71
2023/05/17 11:00:00;;;;;;;26.70;7.10;;;15.40;68.80;;;;;;4957364;29;20181;-71
2023/05/17 11:02:27;;;;;;;13.93;5.00;;;15.10;70.60;;;;;;4958311;28;20225;-71
2023/05/17 11:04:55;;;;;;;9.15;4.00;;;15.30;69.70;;;;;;4958067;29;20205;-71
2023/05/17 11:07:23;;;;;;;11.95;4.18;;;15.60;69.20;;;;;;4957141;29;20751;-71
2023/05/17 11:13:24;;;;;;;10.77;4.60;;;16.20;65.20;;;;;;4958299;29;20188;-71
2023/05/17 11:16:03;;;;;;;9.48;4.00;;;16.50;63.20;;;;;;4957512;29;20249;-71
2023/05/17 11:18:52;;;;;;;14.00;5.15;;;16.40;62.00;;;;;;4956708;29;20244;-71
2023/05/17 11:21:19;;;;;;;12.38;4.20;;;16.50;64.90;;;;;;4957629;29;20169;-71
2023/05/17 11:23:45;;;;;;;8.32;3.67;;;16.50;62.00;;;;;;4956708;29;20193;-72
2023/05/17 11:26:25;;;;;;;7.05;3.45;;;16.70;61.10;;;;;;4957382;29;20257;-79
2023/05/17 11:29:06;;;;;;;6.00;3.10;;;16.30;61.30;;;;;;4957767;28;20177;-71
2023/05/17 11:31:34;;;;;;;6.68;3.50;;;16.30;62.40;;;;;;4957411;28;20210;-74
2023/05/17 11:34:04;;;;;;;7.55;3.33;;;16.10;61.50;;;;;;4960971;29;20177;-74
2023/05/17 11:36:30;;;;;;;13.40;3.40;;;15.80;63.40;;;;;;4960697;29;20197;-73
2023/05/17 11:39:13;;;;;;;6.10;3.38;;;15.90;64.50;;;;;;4960525;29;20181;-73
2023/05/17 11:41:47;;;;;;;5.97;3.22;;;15.90;61.50;;;;;;4960177;29;20205;-74
2023/05/17 11:44:14;;;;;;;10.27;3.20;;;16.20;60.00;;;;;;4961533;29;20233;-73
2023/05/17 11:46:40;;;;;;;10.80;3.15;;;16.50;60.30;;;;;;4961418;28;20221;-73
2023/05/17 11:49:08;;;;;;;5.97;3.10;;;16.40;61.30;;;;;;4960268;29;20192;-74
2023/05/17 11:51:34;;;;;;;8.77;3.22;;;16.10;62.20;;;;;;4961540;29;20193;-73
2023/05/17 11:54:20;;;;;;;11.07;3.58;;;15.90;63.90;;;;;;4960998;29;20220;-73
2023/05/17 11:56:46;;;;;;;5.28;3.00;;;15.80;62.70;;;;;;4961817;29;20245;-72
2023/05/17 11:59:21;;;;;;;7.88;3.45;;;15.40;64.20;;;;;;4960542;29;20645;-72
2023/05/17 12:01:48;;;;;;;6.03;2.65;;;15.50;64.50;;;;;;4960801;29;20180;-72
2023/05/17 12:04:22;;;;;;;5.95;2.72;;;15.50;60.90;;;;;;4956698;29;20190;-71
2023/05/17 12:06:47;;;;;;;6.13;3.22;;;15.60;60.10;;;;;;4956302;29;20235;-71
2023/05/17 12:09:16;;;;;;;6.60;3.03;;;15.80;59.90;;;;;;4956995;29;20208;-71
2023/05/17 12:11:42;;;;;;;6.25;3.00;;;15.80;61.30;;;;;;4955597;29;20567;-71
2023/05/17 12:14:08;;;;;;;6.95;3.17;;;16.00;59.70;;;;;;4957114;29;20181;-71
2023/05/17 12:16:35;;;;;;;5.82;2.88;;;16.30;57.40;;;;;;4955644;29;20666;-71
2023/05/17 12:19:01;;;;;;;6.93;3.08;;;16.40;57.70;;;;;;4955736;29;20553;-72
2023/05/17 12:21:27;;;;;;;7.25;2.92;;;16.70;58.00;;;;;;4955834;29;20177;-72
2023/05/17 12:23:52;;;;;;;9.15;3.03;;;16.60;61.00;;;;;;4955513;29;20184;-72
2023/05/17 12:26:22;;;;;;;6.85;3.13;;;16.20;59.60;;;;;;4955411;29;20240;-72
2023/05/17 12:28:59;;;;;;;7.22;2.92;;;15.90;61.60;;;;;;4955519;29;20208;-72
2023/05/17 12:31:41;;;;;;;5.72;2.83;;;15.80;60.70;;;;;;4955924;29;20255;-72
2023/05/17 12:34:08;;;;;;;5.70;2.90;;;15.80;61.50;;;;;;4956145;29;20186;-72
2023/05/17 12:36:36;;;;;;;8.30;3.20;;;15.50;64.10;;;;;;4955990;29;20197;-73
2023/05/17 12:39:04;;;;;;;5.97;3.03;;;15.70;63.50;;;;;;4956778;28;20571;-72
2023/05/17 12:41:31;;;;;;;6.75;3.05;;;16.00;61.20;;;;;;4955612;28;20183;-72
2023/05/17 12:43:56;;;;;;;12.60;3.55;;;16.10;58.90;;;;;;4956348;28;20185;-72
2023/05/17 12:46:22;;;;;;;7.15;2.85;;;16.40;58.00;;;;;;4955173;29;20647;-73
2023/05/17 12:48:50;;;;;;;7.47;3.17;;;16.70;58.10;;;;;;4955108;29;20194;-72
2023/05/17 12:51:16;;;;;;;5.72;3.10;;;17.00;57.60;;;;;;4955021;29;20205;-72
2023/05/17 12:53:53;;;;;;;4.85;2.50;;;17.00;56.40;;;;;;4955793;29;20174;-72
2023/05/17 12:56:29;;;;;;;5.78;2.80;;;17.00;55.40;;;;;;4955346;29;20212;-72
2023/05/17 12:59:10;;;;;;;7.03;2.97;;;16.50;57.80;;;;;;4955111;29;20177;-72
2023/05/17 13:01:59;;;;;;;5.63;2.85;;;16.10;59.20;;;;;;4955149;29;20220;-72
2023/05/17 13:04:33;;;;;;;5.93;3.20;;;15.80;60.00;;;;;;4956319;28;20162;-72
2023/05/17 13:07:03;;;;;;;5.75;3.17;;;15.70;60.00;;;;;;4955186;29;20201;-72
2023/05/17 13:09:30;;;;;;;6.32;2.97;;;15.70;59.50;;;;;;4954646;29;20328;-72
2023/05/17 13:12:04;;;;;;;6.13;2.85;;;15.90;59.40;;;;;;4954585;29;20212;-72
2023/05/17 13:14:41;;;;;;;6.65;3.08;;;15.90;57.30;;;;;;4956068;28;20197;-72
2023/05/17 13:17:11;;;;;;;8.55;2.85;;;15.90;59.00;;;;;;4954970;29;20200;-72
2023/05/17 13:19:38;;;;;;;9.40;2.97;;;16.00;59.10;;;;;;4954800;29;20695;-72
2023/05/17 13:22:05;;;;;;;6.00;2.75;;;15.70;58.80;;;;;;4955923;28;20173;-72
2023/05/17 13:24:34;;;;;;;8.73;2.83;;;15.50;59.20;;;;;;4955723;28;20542;-72
2023/05/17 13:27:00;;;;;;;5.93;3.03;;;15.50;59.80;;;;;;4954462;29;20197;-72
2023/05/17 13:29:27;;;;;;;8.43;2.80;;;15.60;58.60;;;;;;4954731;29;20232;-72
2023/05/17 13:31:53;;;;;;;6.68;2.65;;;15.50;59.50;;;;;;4955505;28;20260;-72
2023/05/17 13:34:21;;;;;;;6.72;2.78;;;15.40;58.50;;;;;;4954748;29;20193;-72
2023/05/17 13:36:47;;;;;;;7.07;3.05;;;15.50;58.90;;;;;;4954501;29;20652;-72
2023/05/17 13:39:13;;;;;;;6.68;3.13;;;15.60;60.80;;;;;;4954578;29;20232;-72
2023/05/17 13:41:39;;;;;;;7.97;3.17;;;15.70;58.10;;;;;;4954232;29;20213;-72
2023/05/17 13:44:05;;;;;;;7.32;3.13;;;15.70;57.50;;;;;;4958194;28;20185;-72
2023/05/17 13:46:31;;;;;;;9.63;3.20;;;15.60;57.70;;;;;;4963543;28;20579;-72
2023/05/17 13:48:57;;;;;;;8.63;2.80;;;15.60;59.10;;;;;;4965083;28;20188;-72
2023/05/17 13:51:24;;;;;;;8.95;3.13;;;15.60;59.20;;;;;;4956239;28;20617;-72
2023/05/17 13:53:50;;;;;;;5.90;2.75;;;15.60;58.10;;;;;;4954186;29;20185;-72
2023/05/17 13:56:16;;;;;;;7.80;3.10;;;15.70;58.80;;;;;;4959439;28;20216;-72
2023/05/17 13:58:41;;;;;;;8.77;3.17;;;15.80;59.00;;;;;;4961771;28;20189;-72
2023/05/17 14:01:07;;;;;;;4.70;2.53;;;15.90;57.90;;;;;;4967075;28;20181;-72
2023/05/17 14:03:33;;;;;;;8.70;2.83;;;16.10;58.20;;;;;;4974995;28;20177;-72
2023/05/17 14:05:59;;;;;;;5.75;2.83;;;16.10;58.40;;;;;;4973284;28;20259;-72
2023/05/17 14:08:25;;;;;;;6.53;2.63;;;16.00;58.50;;;;;;4973291;28;20180;-72
2023/05/17 14:10:51;;;;;;;8.85;3.08;;;16.00;60.40;;;;;;4973227;28;20177;-72
2023/05/17 14:13:16;;;;;;;7.75;2.83;;;16.10;59.00;;;;;;4973977;28;20215;-72
2023/05/17 14:15:42;;;;;;;5.93;2.40;;;16.20;58.10;;;;;;4974356;28;20173;-72
2023/05/17 14:18:08;;;;;;;4.75;2.97;;;16.20;57.60;;;;;;4970173;28;20644;-72
2023/05/17 14:20:34;;;;;;;5.47;2.70;;;16.30;56.50;;;;;;4973140;28;20710;-71
2023/05/17 14:23:00;;;;;;;4.40;2.55;;;16.40;57.40;;;;;;4973562;28;20181;-71
2023/05/17 14:25:26;;;;;;;7.28;2.95;;;16.40;57.00;;;;;;4972971;28;20177;-71
2023/05/17 14:27:52;;;;;;;7.60;3.03;;;16.50;57.40;;;;;;4973392;28;20180;-72
2023/05/17 14:30:18;;;;;;;10.73;3.30;;;16.50;58.20;;;;;;4973309;28;20192;-72
2023/05/17 14:32:44;;;;;;;6.82;3.25;;;16.50;60.20;;;;;;4973571;28;20205;-72
2023/05/17 14:35:10;;;;;;;8.63;3.10;;;16.50;59.30;;;;;;4973042;28;20278;-72
2023/05/17 14:37:35;;;;;;;7.05;2.88;;;16.40;58.30;;;;;;4973427;28;20199;-72
2023/05/17 14:40:01;;;;;;;6.65;3.10;;;16.30;58.20;;;;;;4973923;28;20189;-72
2023/05/17 14:42:27;;;;;;;8.30;3.50;;;16.20;59.70;;;;;;4973276;28;20239;-72
2023/05/17 14:44:52;;;;;;;5.38;2.60;;;16.30;62.90;;;;;;4973323;28;20188;-72
2023/05/17 14:47:20;;;;;;;6.20;2.80;;;16.20;58.90;;;;;;4973336;28;20562;-72
2023/05/17 14:49:46;;;;;;;6.30;2.90;;;16.00;57.60;;;;;;4974131;28;20169;-72
2023/05/17 14:52:12;;;;;;;6.25;2.60;;;15.90;59.30;;;;;;4973163;28;20205;-72
2023/05/17 14:54:38;;;;;;;5.85;2.85;;;15.80;59.00;;;;;;4975128;28;20195;-72
2023/05/17 14:57:04;;;;;;;10.40;2.63;;;15.80;57.90;;;;;;4972822;28;20563;-72
2023/05/17 14:59:30;;;;;;;7.07;2.50;;;15.80;58.10;;;;;;4973132;28;20647;-72
2023/05/17 15:01:56;;;;;;;5.47;2.08;;;15.80;58.00;;;;;;4972853;28;20216;-72
2023/05/17 15:04:21;;;;;;;8.95;2.90;;;15.90;58.30;;;;;;4973029;28;20232;-72
2023/05/17 15:06:47;;;;;;;5.82;2.75;;;16.00;57.80;;;;;;4975815;28;20251;-72
2023/05/17 15:09:15;;;;;;;6.28;2.58;;;16.20;57.10;;;;;;4976698;28;20525;-72
2023/05/17 15:11:41;;;;;;;7.10;2.28;;;16.30;56.90;;;;;;4976187;28;20200;-72
2023/05/17 15:14:07;;;;;;;8.98;2.75;;;16.20;56.50;;;;;;4976079;28;20279;-72
2023/05/17 15:16:33;;;;;;;5.47;2.53;;;16.20;55.80;;;;;;4977206;28;20319;-72
2023/05/17 15:18:59;;;;;;;5.43;2.47;;;16.00;57.00;;;;;;4977071;28;20235;-73
2023/05/17 15:21:25;;;;;;;6.00;2.50;;;15.90;56.40;;;;;;4976344;28;20177;-73
2023/05/17 15:23:50;;;;;;;5.80;2.70;;;15.90;56.20;;;;;;4975826;28;20192;-72
2023/05/17 15:26:16;;;;;;;4.82;2.40;;;15.90;56.70;;;;;;4976622;28;20204;-73
2023/05/17 15:28:42;;;;;;;7.90;2.65;;;15.80;57.00;;;;;;4976099;28;20177;-73
2023/05/17 15:31:10;;;;;;;10.80;2.65;;;15.60;56.20;;;;;;4975678;28;20675;-72
2023/05/17 15:33:55;;;;;;;7.00;2.83;;;15.40;57.50;;;;;;4976125;28;20215;-72
2023/05/17 15:36:20;;;;;;;9.15;2.80;;;15.30;57.70;;;;;;4977243;28;20188;-73
2023/05/17 15:38:46;;;;;;;5.80;2.50;;;15.40;58.00;;;;;;4977504;28;20232;-73
2023/05/17 15:41:17;;;;;;;6.93;2.90;;;15.40;59.20;;;;;;4976065;28;20183;-73
2023/05/17 15:43:46;;;;;;;7.55;2.65;;;15.30;59.10;;;;;;4976480;28;20199;-78
2023/05/17 15:46:12;;;;;;;7.28;2.60;;;15.20;59.80;;;;;;4976550;28;20201;-72
2023/05/17 15:48:37;;;;;;;11.02;2.70;;;15.00;59.20;;;;;;4976393;28;20169;-72
2023/05/17 15:51:03;;;;;;;6.47;2.58;;;15.00;61.40;;;;;;4975361;28;20216;-73
2023/05/17 15:53:29;;;;;;;7.63;2.53;;;15.00;60.40;;;;;;4976601;28;20184;-73
2023/05/17 15:55:55;;;;;;;8.13;2.70;;;15.00;60.50;;;;;;4975083;28;20263;-72
2023/05/17 15:58:26;;;;;;;5.30;2.65;;;15.10;59.10;;;;;;4975663;28;20172;-73
2023/05/17 16:00:52;;;;;;;8.68;2.45;;;15.30;59.00;;;;;;4975286;28;20169;-72
2023/05/17 16:03:18;;;;;;;9.93;2.65;;;15.40;58.50;;;;;;4975699;28;20185;-73
2023/05/17 16:05:44;;;;;;;5.70;2.63;;;15.50;58.60;;;;;;4975602;28;20570;-73
2023/05/17 16:08:15;;;;;;;6.10;2.70;;;15.40;57.80;;;;;;4975699;28;20185;-73
2023/05/17 16:10:40;;;;;;;8.18;2.88;;;15.40;58.70;;;;;;4975186;28;20180;-72
2023/05/17 16:13:06;;;;;;;6.75;2.58;;;15.50;59.70;;;;;;4974996;28;20201;-72
2023/05/17 16:15:32;;;;;;;6.50;2.65;;;15.50;60.30;;;;;;4976023;28;20320;-72
2023/05/17 16:17:57;;;;;;;6.00;2.38;;;15.50;59.60;;;;;;4974926;28;20561;-72
2023/05/17 16:21:07;;;;;;;6.03;2.70;;;15.50;58.30;;;;;;4975780;28;20187;-71
2023/05/17 16:23:34;;;;;;;8.55;2.95;;;15.60;57.70;;;;;;4976457;28;20165;-73
2023/05/17 16:26:23;;;;;;;8.00;2.60;;;15.60;58.40;;;;;;4974998;28;20236;-72
2023/05/17 16:29:20;;;;;;;7.25;2.80;;;15.70;58.50;;;;;;4976194;28;20179;-73
2023/05/17 16:32:16;;;;;;;6.25;2.83;;;15.80;58.00;;;;;;4974560;28;20201;-72
2023/05/17 16:41:53;;;;;;;9.55;2.75;;;16.10;57.20;;;;;;4976190;28;20171;-72
2023/05/17 16:44:19;;;;;;;8.73;2.38;;;16.10;56.70;;;;;;4975377;28;20219;-73
2023/05/17 16:46:45;;;;;;;7.53;2.70;;;15.90;58.10;;;;;;4974307;28;20192;-72
2023/05/17 16:49:37;;;;;;;6.03;2.53;;;15.70;57.60;;;;;;4974634;28;20183;-72
2023/05/17 16:52:03;;;;;;;6.18;2.70;;;15.60;58.20;;;;;;4975638;28;20196;-73
2023/05/17 16:54:30;;;;;;;8.68;2.70;;;15.50;58.30;;;;;;4974324;28;20173;-73
2023/05/17 16:56:56;;;;;;;7.72;2.40;;;15.30;58.80;;;;;;4974195;28;20228;-73
2023/05/17 16:59:21;;;;;;;5.65;2.63;;;15.30;59.30;;;;;;4975665;28;20169;-73
2023/05/17 17:01:47;;;;;;;5.65;2.35;;;15.30;59.20;;;;;;4974434;28;20221;-73
2023/05/17 17:04:12;;;;;;;8.70;2.95;;;15.40;59.20;;;;;;4974709;28;20180;-73
2023/05/17 17:06:50;;;;;;;8.02;2.75;;;15.40;59.40;;;;;;4974568;28;20201;-73
2023/05/17 17:09:15;;;;;;;10.15;2.97;;;15.30;62.50;;;;;;4974883;28;20208;-71
2023/05/17 17:11:41;;;;;;;9.40;2.63;;;15.20;60.10;;;;;;4974960;28;20239;-71
2023/05/17 17:14:07;;;;;;;6.53;2.65;;;15.00;60.60;;;;;;4974974;28;20591;-71
2023/05/17 17:16:32;;;;;;;14.68;2.67;;;14.80;61.30;;;;;;4974469;28;20204;-71
2023/05/17 17:18:58;;;;;;;9.57;2.47;;;14.60;61.80;;;;;;4975023;28;20169;-71
2023/05/17 17:21:24;;;;;;;11.70;2.70;;;14.50;62.20;;;;;;4973709;28;20181;-71
2023/05/17 17:23:50;;;;;;;15.88;2.92;;;14.40;62.30;;;;;;4974978;28;20296;-71
2023/05/17 17:26:16;;;;;;;13.35;3.38;;;14.20;64.40;;;;;;4973625;28;20803;-71
2023/05/17 17:28:42;;;;;;;17.27;2.88;;;14.00;64.60;;;;;;4973311;28;20707;-71
2023/05/17 17:31:08;;;;;;;19.10;3.75;;;13.90;64.70;;;;;;4974507;28;20220;-71
2023/05/17 17:33:34;;;;;;;10.50;3.00;;;13.70;64.90;;;;;;4973646;28;20232;-71
2023/05/17 17:36:01;;;;;;;21.17;3.05;;;13.60;65.70;;;;;;4973383;28;20200;-71
2023/05/17 17:38:27;;;;;;;8.80;4.18;;;13.50;66.90;;;;;;4973573;28;20181;-71
2023/05/17 17:41:15;;;;;;;10.45;3.67;;;13.40;66.40;;;;;;4973820;28;20187;-71
2023/05/17 17:43:41;;;;;;;7.97;2.92;;;13.30;67.40;;;;;;4974654;28;20232;-71
2023/05/17 17:46:08;;;;;;;14.80;3.88;;;13.20;67.40;;;;;;4974619;28;20203;-71
2023/05/17 17:48:33;;;;;;;9.40;3.30;;;13.10;67.80;;;;;;4973342;28;20296;-71
2023/05/17 17:50:59;;;;;;;11.35;4.47;;;13.00;68.80;;;;;;4973459;28;20279;-71
2023/05/17 17:53:25;;;;;;;11.88;3.38;;;12.90;68.10;;;;;;4973397;28;20209;-71
2023/05/17 17:55:50;;;;;;;8.32;2.33;;;12.80;67.60;;;;;;4973232;28;20216;-71
2023/05/17 17:58:16;;;;;;;6.60;2.60;;;12.70;67.70;;;;;;4973851;28;20185;-71